Flight Track Log - Related Links

Times and Time Zones

All times are in EDT time to prevent confusion due to time zone crossing. See the N3746H flight status page for this flight to view local times or setup timezone preferences in your user account.

Time Position Orientation Groundspeed Altitude Reporting Facility
EDT Latitude Longitude Course Direction KTS MPH feet Rate Location/Type
Wed 04:47:05 PM 40.5667 -73.8000 323° Northwest 248 285 2,600  Level New York TRACON
Wed 04:48:11 PM 40.5667 -73.7167 90° East 268 308 5,400 2,650 Climbing New York TRACON
Wed 04:49:00 PM 41.0123 -74.0592 331° Northwest  Level FlightAware Approximate
Wed 04:49:05 PM 40.6000 -73.6333 62° Northeast 294 338 7,900  Level New York TRACON
Wed 04:50:00 PM 41.1082 -74.1311 331° Northwest  Level FlightAware Approximate
Wed 04:50:05 PM 40.6500 -73.5500 52° Northeast 302 348 10,500  Level New York TRACON
Wed 04:51:00 PM 41.2032 -74.2032 323° Northwest  Level FlightAware Approximate
Wed 04:51:05 PM 40.7333 -73.5333 North 343 395 11,500  Level New York TRACON
Wed 04:52:00 PM 41.3011 -74.2677 323° Northwest  Level FlightAware Approximate
Wed 04:52:05 PM 40.8333 -73.5000 14° North 376 433 14,300  Level New York TRACON
Wed 04:53:05 PM 40.9333 -73.5333 346° North 381 438 16,400 891 Climbing New York TRACON
Wed 04:55:00 PM 41.0494 -73.7344 307° West 400 460 16,900 207 Climbing New York Center
Wed 04:55:59 PM 41.1053 -73.8306 308° West 378 435 17,000 50 Climbing New York Center
Wed 04:56:59 PM 41.1708 -73.9492 306° West 373 429 17,000  Level New York Center
Wed 04:57:59 PM 41.2286 -74.0458 308° West 373 429 17,000  Level New York Center
Wed 04:59:00 PM 41.2961 -74.1650 307° West 373 429 17,000  Level New York Center
Wed 05:00:00 PM 41.3514 -74.2672 306° West 373 429 17,000 458 Level New York Center
Wed 05:00:58 PM 41.4186 -74.3897 306° West 373 429 17,900 1,300 Climbing New York Center
Wed 05:02:00 PM 41.4794 -74.5064 305° West 378 435 19,600 1,900 Climbing New York Center
Wed 05:02:58 PM 41.5217 -74.6225 296° West 383 441 21,700 2,150 Climbing New York Center
Wed 05:04:00 PM 41.5736 -74.7447 300° West 389 448 23,900 1,721 Climbing New York Center
Wed 05:05:00 PM 41.6256 -74.8697 299° West 389 448 25,200 1,271 Climbing New York Center
Wed 05:05:58 PM 41.6817 -74.9981 300° West 389 448 26,400 1,311 Climbing New York Center
Wed 05:06:59 PM 41.7372 -75.1294 300° West 394 453 27,800 1,574 Climbing New York Center
Wed 05:08:00 PM 41.7928 -75.2583 300° West 399 459 29,600 1,664 Climbing New York Center
Wed 05:08:58 PM 41.8461 -75.3844 300° West 399 459 31,100 1,271 Climbing New York Center
Wed 05:09:58 PM 41.8975 -75.5106 299° West 399 459 32,100 942 Climbing New York Center
Wed 05:10:59 PM 41.9508 -75.6344 300° West 394 453 33,000 942 Climbing New York Center
Wed 05:11:59 PM 42.0094 -75.7783 299° West 394 453 34,000 -151 Climbing New York Center
Wed 05:13:38 PM 42.0908 -75.9797 299° West 400 460 32,600 -868 Descending Cleveland Center
Wed 05:14:38 PM 42.1419 -76.1106 298° West 400 460 31,700 -874 Descending Cleveland Center
Wed 05:15:21 PM 42.1667 -76.1667 301° West 390 449 31,100 -900 Descending Toronto Center
Wed 05:15:38 PM 42.1933 -76.2525 293° West 400 460 30,800 -935 Descending Cleveland Center
Wed 05:16:38 PM 42.2381 -76.3928 293° West 400 460 29,900 -400 Descending Cleveland Center
Wed 05:17:38 PM 42.2803 -76.5247 293° West 400 460 30,000 50 Climbing Cleveland Center
Wed 05:18:38 PM 42.3225 -76.6597 293° West 395 455 30,000  Level Cleveland Center
Wed 05:19:38 PM 42.3667 -76.7947 294° West 395 455 30,000  Level Cleveland Center
Wed 05:20:39 PM 42.4086 -76.9300 293° West 395 455 30,000  Level Cleveland Center
Wed 05:21:38 PM 42.4525 -77.0653 294° West 390 449 30,000  Level Cleveland Center
Wed 05:22:39 PM 42.4942 -77.2039 292° West 390 449 30,000  Level Cleveland Center
Wed 05:23:38 PM 42.5378 -77.3425 293° West 390 449 30,000  Level Cleveland Center
Wed 05:24:38 PM 42.5792 -77.4842 292° West 390 449 30,000  Level Cleveland Center
Wed 05:25:39 PM 42.6244 -77.6231 294° West 398 458 30,000  Level Cleveland Center
Wed 05:26:38 PM 42.6675 -77.7650 292° West 404 465 30,000  Level Cleveland Center
Wed 05:27:38 PM 42.7061 -77.8961 292° West 409 471 30,000  Level Cleveland Center
Wed 05:28:38 PM 42.7489 -78.0356 293° West 409 471 30,000  Level Cleveland Center
Wed 05:29:38 PM 42.7917 -78.1811 292° West 409 471 30,000  Level Cleveland Center
Wed 05:30:38 PM 42.8342 -78.3211 293° West 409 471 30,000  Level Cleveland Center
Wed 05:31:38 PM 42.8764 -78.4639 292° West 409 471 30,000  Level Cleveland Center
Wed 05:32:39 PM 42.9164 -78.6044 291° West 409 471 30,000  Level Cleveland Center
Wed 05:33:39 PM 42.9356 -78.7569 280° West 403 464 30,000  Level Cleveland Center
Wed 05:34:38 PM 42.9442 -78.9069 275° West 403 464 30,000  Level Cleveland Center
Wed 05:35:21 PM 42.9500 -79.0167 274° West 410 472 30,000  Level Toronto Center
Wed 05:36:21 PM 42.9500 -79.1833 270° West 410 472 30,000  Level Toronto Center
Wed 05:37:21 PM 42.9500 -79.3167 270° West 410 472 30,000  Level Toronto Center
Wed 05:38:21 PM 42.9667 -79.4667 279° West 410 472 30,000  Level Toronto Center
Wed 05:39:21 PM 42.9667 -79.6333 270° West 410 472 30,000  Level Toronto Center
Wed 05:40:21 PM 42.9833 -79.8000 278° West 410 472 30,000  Level Toronto Center
Wed 05:41:21 PM 42.9833 -79.9500 270° West 410 472 30,000  Level Toronto Center
Wed 05:42:21 PM 42.9833 -80.0833 270° West 410 472 30,000  Level Toronto Center
Wed 05:43:21 PM 43.0000 -80.2500 278° West 410 472 30,000  Level Toronto Center
Wed 05:44:21 PM 43.0000 -80.4000 270° West 410 472 30,000  Level Toronto Center
Wed 05:45:21 PM 43.0167 -80.5667 278° West 420 483 30,000  Level Toronto Center
Wed 05:46:21 PM 43.0167 -80.7333 270° West 410 472 30,000  Level Toronto Center
Wed 05:47:21 PM 43.0167 -80.8833 270° West 410 472 30,000 100 Level Toronto Center
Wed 05:48:21 PM 43.0167 -81.0500 270° West 410 472 30,200 950 Climbing Toronto Center
Wed 05:49:21 PM 43.0333 -81.1833 280° West 410 472 31,900 1,750 Climbing Toronto Center
Wed 05:50:21 PM 43.0500 -81.3500 278° West 400 460 33,700 1,050 Climbing Toronto Center
Wed 05:51:21 PM 43.0833 -81.4833 289° West 390 449 34,000 150 Climbing Toronto Center
Wed 05:52:21 PM 43.1000 -81.6167 280° West 390 449 34,000  Level Toronto Center
Wed 05:53:21 PM 43.1167 -81.7833 278° West 390 449 34,000  Level Toronto Center
Wed 05:54:21 PM 43.1333 -81.9167 280° West 390 449 34,000  Level Toronto Center
Wed 05:55:21 PM 43.1500 -82.0833 278° West 390 449 34,000  Level Toronto Center
Wed 05:56:21 PM 43.1833 -82.2167 289° West 390 449 34,000  Level Toronto Center
Wed 05:57:21 PM 43.2000 -82.3833 278° West 390 449 34,000  Level Toronto Center
Wed 05:58:21 PM 43.2167 -82.5167 280° West 390 449 34,000  Level Toronto Center
Wed 05:59:39 PM 43.2553 -82.7211 285° West 395 455 34,000  Level Cleveland Center
Wed 06:00:38 PM 43.2900 -82.8619 289° West 395 455 34,000 303 Level Cleveland Center
Wed 06:01:38 PM 43.3308 -83.0064 291° West 400 460 34,600 950 Climbing Cleveland Center
Wed 06:02:38 PM 43.3656 -83.1333 291° West 405 466 35,900 700 Climbing Cleveland Center
Wed 06:03:38 PM 43.4000 -83.2719 289° West 399 459 36,000 50 Climbing Cleveland Center
Wed 06:04:38 PM 43.4364 -83.4106 290° West 394 453 36,000  Level Cleveland Center
Wed 06:05:38 PM 43.4706 -83.5467 289° West 388 447 36,000  Level Cleveland Center
Wed 06:06:38 PM 43.5064 -83.6858 290° West 388 447 36,000  Level Cleveland Center
Wed 06:07:38 PM 43.5425 -83.8194 290° West 388 447 36,000  Level Cleveland Center
Wed 06:09:21 PM 43.6000 -84.0500 289° West 370 426 36,000  Level Toronto Center
Wed 06:10:08 PM 43.6244 -84.1472 289° West 373 429 36,000  Level Minneapolis Center
Wed 06:11:09 PM 43.6589 -84.2858 289° West 380 437 36,000  Level Minneapolis Center
Wed 06:12:10 PM 43.6942 -84.4275 289° West 388 447 36,000  Level Minneapolis Center
Wed 06:13:12 PM 43.7378 -84.5997 289° West 394 453 36,000  Level Minneapolis Center
Wed 06:14:13 PM 43.7733 -84.7408 289° West 392 451 36,000  Level Minneapolis Center
Wed 06:15:15 PM 43.8069 -84.8842 288° West 394 453 36,000  Level Minneapolis Center
Wed 06:16:16 PM 43.8417 -85.0283 289° West 395 455 36,000  Level Minneapolis Center
Wed 06:17:18 PM 43.8781 -85.1733 289° West 397 457 36,000  Level Minneapolis Center
Wed 06:18:19 PM 43.9131 -85.3192 288° West 399 459 36,000  Level Minneapolis Center
Wed 06:19:21 PM 43.9469 -85.4631 288° West 399 459 36,000  Level Minneapolis Center
Wed 06:20:22 PM 43.9883 -85.6361 288° West 398 458 36,000  Level Minneapolis Center
Wed 06:21:24 PM 44.0219 -85.7803 288° West 396 456 36,000  Level Minneapolis Center
Wed 06:22:25 PM 44.0564 -85.9264 288° West 398 458 36,000  Level Minneapolis Center
Wed 06:23:26 PM 44.0900 -86.0719 288° West 398 458 36,000 -49 Level Minneapolis Center
Wed 06:24:28 PM 44.1247 -86.2242 288° West 397 457 35,900  Descending Minneapolis Center
Wed 06:25:29 PM 44.1569 -86.3694 287° West 394 453 36,000 49 Climbing Minneapolis Center
Wed 06:26:31 PM 44.1900 -86.5161 287° West 395 455 36,000  Level Minneapolis Center
Wed 06:27:32 PM 44.2239 -86.6606 288° West 392 451 36,000  Level Minneapolis Center
Wed 06:28:34 PM 44.2564 -86.8072 287° West 395 455 36,000  Level Minneapolis Center
Wed 06:29:35 PM 44.2889 -86.9533 287° West 393 452 36,000  Level Minneapolis Center
Wed 06:30:37 PM 44.3275 -87.1292 287° West 395 455 36,000  Level Minneapolis Center
Wed 06:31:38 PM 44.3611 -87.2786 288° West 396 456 36,000  Level Minneapolis Center
Wed 06:32:40 PM 44.3919 -87.4253 286° West 394 453 36,000  Level Minneapolis Center
Wed 06:33:41 PM 44.4244 -87.5733 287° West 397 457 36,000  Level Minneapolis Center
Wed 06:34:43 PM 44.4558 -87.7222 287° West 399 459 36,000  Level Minneapolis Center
Wed 06:35:44 PM 44.4872 -87.8697 287° West 401 461 36,000  Level Minneapolis Center
Wed 06:36:46 PM 44.5186 -88.0206 286° West 398 458 36,000  Level Minneapolis Center
Wed 06:37:47 PM 44.5528 -88.1947 285° West 399 459 36,000  Level Minneapolis Center
Wed 06:38:49 PM 44.5453 -88.3411 266° West 379 436 36,000  Level Minneapolis Center
Wed 06:39:50 PM 44.5353 -88.4861 265° West 376 433 36,000  Level Minneapolis Center
Wed 06:40:52 PM 44.5250 -88.6331 264° West 378 435 36,000  Level Minneapolis Center
Wed 06:41:54 PM 44.5150 -88.7747 264° West 370 426 36,000  Level Minneapolis Center
Wed 06:42:55 PM 44.5047 -88.9208 264° West 375 432 36,000  Level Minneapolis Center
Wed 06:43:57 PM 44.4931 -89.0661 264° West 376 433 36,000  Level Minneapolis Center
Wed 06:44:59 PM 44.4814 -89.2342 265° West 374 430 36,000  Level Minneapolis Center
Wed 06:46:00 PM 44.4700 -89.3783 264° West 373 429 36,000  Level Minneapolis Center
Wed 06:47:02 PM 44.4578 -89.5258 263° West 379 436 36,000  Level Minneapolis Center
Wed 06:48:03 PM 44.4467 -89.6694 264° West 374 430 36,000  Level Minneapolis Center
Wed 06:49:05 PM 44.4344 -89.8186 264° West 383 441 36,000  Level Minneapolis Center
Wed 06:50:07 PM 44.4236 -89.9647 264° West 379 436 36,000  Level Minneapolis Center
Wed 06:51:08 PM 44.4083 -90.1364 263° West 381 438 36,000  Level Minneapolis Center
Wed 06:52:09 PM 44.3958 -90.2825 263° West 379 436 36,000  Level Minneapolis Center
Wed 06:53:11 PM 44.3839 -90.4272 263° West 377 434 36,000  Level Minneapolis Center
Wed 06:54:13 PM 44.3711 -90.5714 263° West 375 432 36,000  Level Minneapolis Center
Wed 06:55:15 PM 44.3581 -90.7153 263° West 375 432 36,000  Level Minneapolis Center
Wed 06:56:16 PM 44.3453 -90.8614 263° West 378 435 36,000  Level Minneapolis Center
Wed 06:57:18 PM 44.3297 -91.0169 262° West 378 435 36,000  Level Minneapolis Center
Wed 06:58:20 PM 44.3181 -91.1547 263° West 380 437 36,000  Level Minneapolis Center
Wed 06:59:21 PM 44.3031 -91.3108 262° West 383 441 36,000  Level Minneapolis Center
Wed 07:00:23 PM 44.2894 -91.4567 263° West 382 440 36,000  Level Minneapolis Center
Wed 07:01:25 PM 44.2731 -91.6317 263° West 381 438 36,000  Level Minneapolis Center
Wed 07:02:26 PM 44.2583 -91.7761 262° West 379 436 36,000  Level Minneapolis Center
Wed 07:03:28 PM 44.2436 -91.9206 262° West 378 435 36,000  Level Minneapolis Center
Wed 07:04:30 PM 44.2294 -92.0650 262° West 378 435 36,000  Level Minneapolis Center
Wed 07:05:32 PM 44.2144 -92.2111 262° West 380 437 36,000  Level Minneapolis Center
Wed 07:06:33 PM 44.1997 -92.3556 262° West 380 437 36,000  Level Minneapolis Center
Wed 07:07:35 PM 44.1842 -92.5000 262° West 377 434 36,000  Level Minneapolis Center
Wed 07:08:37 PM 44.1686 -92.6458 262° West 380 437 36,000  Level Minneapolis Center
Wed 07:09:38 PM 44.1503 -92.8219 262° West 383 441 36,000  Level Minneapolis Center
Wed 07:10:40 PM 44.1344 -92.9689 262° West 383 441 36,000  Level Minneapolis Center
Wed 07:11:42 PM 44.1178 -93.1158 261° West 384 442 36,000  Level Minneapolis Center
Wed 07:12:44 PM 44.1014 -93.2628 261° West 383 441 36,000  Level Minneapolis Center
Wed 07:13:45 PM 44.0853 -93.4075 261° West 378 435 36,000  Level Minneapolis Center
Wed 07:14:47 PM 44.0689 -93.5514 261° West 377 434 36,000  Level Minneapolis Center
Wed 07:15:49 PM 44.0528 -93.6947 261° West 376 433 36,000  Level Minneapolis Center
Wed 07:16:51 PM 44.0319 -93.8675 261° West 377 434 36,000  Level Minneapolis Center
Wed 07:17:52 PM 44.0153 -94.0119 261° West 378 435 36,000  Level Minneapolis Center
Wed 07:18:54 PM 43.9983 -94.1575 261° West 381 438 36,000  Level Minneapolis Center
Wed 07:19:56 PM 43.9814 -94.2983 261° West 381 438 36,000  Level Minneapolis Center
Wed 07:20:58 PM 43.9633 -94.4414 260° West 379 436 36,000  Level Minneapolis Center
Wed 07:21:59 PM 43.9458 -94.5850 260° West 378 435 36,000  Level Minneapolis Center
Wed 07:23:01 PM 43.9247 -94.7594 261° West 381 438 36,000  Level Minneapolis Center
Wed 07:24:03 PM 43.9056 -94.9058 260° West 386 444 36,000  Level Minneapolis Center
Wed 07:25:05 PM 43.8869 -95.0522 260° West 386 444 36,000  Level Minneapolis Center
Wed 07:26:07 PM 43.8678 -95.2011 260° West 391 450 36,000  Level Minneapolis Center
Wed 07:27:08 PM 43.8481 -95.3492 260° West 392 451 36,000  Level Minneapolis Center
Wed 07:28:10 PM 43.8286 -95.4972 260° West 391 450 36,000  Level Minneapolis Center
Wed 07:29:12 PM 43.8086 -95.6469 260° West 393 452 36,000  Level Minneapolis Center
Wed 07:30:13 PM 43.7881 -95.7969 259° West 394 453 36,000  Level Minneapolis Center
Wed 07:31:15 PM 43.7625 -95.9769 259° West 395 455 36,000  Level Minneapolis Center
Wed 07:32:17 PM 43.7417 -96.1256 259° West 393 452 36,000  Level Minneapolis Center
Wed 07:33:19 PM 43.7211 -96.2767 259° West 398 458 36,000  Level Minneapolis Center
Wed 07:34:20 PM 43.6992 -96.4275 259° West 399 459 36,000  Level Minneapolis Center
Wed 07:35:22 PM 43.6786 -96.5767 259° West 396 456 36,000  Level Minneapolis Center
Wed 07:36:24 PM 43.6575 -96.7253 259° West 395 455 36,000  Level Minneapolis Center
Wed 07:37:25 PM 43.6297 -96.8683 255° West 387 445 36,000  Level Minneapolis Center
Wed 07:38:27 PM 43.5969 -97.0094 252° West 386 444 36,000  Level Minneapolis Center
Wed 07:39:29 PM 43.5589 -97.1792 253° West 387 445 36,000  Level Minneapolis Center
Wed 07:40:31 PM 43.5256 -97.3194 252° West 387 445 36,000  Level Minneapolis Center
Wed 07:41:32 PM 43.4925 -97.4622 252° West 390 449 36,000  Level Minneapolis Center
Wed 07:42:34 PM 43.4600 -97.6047 253° West 391 450 36,000  Level Minneapolis Center
Wed 07:43:36 PM 43.4264 -97.7450 252° West 389 448 36,000  Level Minneapolis Center
Wed 07:44:38 PM 43.3925 -97.8869 252° West 391 450 36,000  Level Minneapolis Center
Wed 07:45:40 PM 43.3589 -98.0278 252° West 389 448 36,000  Level Minneapolis Center
Wed 07:46:41 PM 43.3189 -98.1958 252° West 388 447 36,000  Level Minneapolis Center
Wed 07:47:43 PM 43.2850 -98.3350 252° West 386 444 36,000  Level Minneapolis Center
Wed 07:48:45 PM 43.2508 -98.4758 252° West 388 447 36,000  Level Minneapolis Center
Wed 07:49:47 PM 43.2158 -98.6172 251° West 392 451 36,000  Level Minneapolis Center
Wed 07:50:48 PM 43.1808 -98.7606 252° West 395 455 36,000  Level Minneapolis Center
Wed 07:51:50 PM 43.1447 -98.9031 251° West 396 456 36,000  Level Minneapolis Center
Wed 07:52:52 PM 43.1094 -99.0478 252° West 397 457 36,000  Level Minneapolis Center
Wed 07:53:54 PM 43.0728 -99.1942 251° West 402 463 36,000  Level Minneapolis Center
Wed 07:54:55 PM 43.0292 -99.3717 251° West 408 470 36,000  Level Minneapolis Center
Wed 07:55:57 PM 42.9931 -99.5144 251° West 402 463 36,000  Level Minneapolis Center
Wed 07:56:59 PM 42.9569 -99.6539 251° West 394 453 36,000  Level Minneapolis Center
Wed 07:58:01 PM 42.9203 -99.7947 250° West 393 452 36,000  Level Minneapolis Center
Wed 07:59:02 PM 42.8839 -99.9317 250° West 390 449 36,000  Level Minneapolis Center
Wed 07:59:44 PM 42.8550 -100.0381 250° West 383 441 36,000  Level Denver Center
Wed 08:00:45 PM 42.8200 -100.1753 251° West 383 441 36,000  Level Denver Center
Wed 08:01:47 PM 42.7828 -100.3094 249° West 382 440 36,000  Level Denver Center
Wed 08:02:48 PM 42.7475 -100.4531 252° West 387 445 36,000  Level Denver Center
Wed 08:03:50 PM 42.7106 -100.5942 250° West 389 448 36,000  Level Denver Center
Wed 08:04:51 PM 42.6753 -100.7261 250° West 388 447 36,000  Level Denver Center
Wed 08:05:52 PM 42.6347 -100.8747 250° West 380 437 36,000  Level Denver Center
Wed 08:06:53 PM 42.6064 -100.9814 250° West 379 436 36,000  Level Denver Center
Wed 08:07:55 PM 42.5617 -101.1483 250° West 369 425 36,000  Level Denver Center
Wed 08:08:57 PM 42.5261 -101.2722 249° West 369 425 36,000  Level Denver Center
Wed 08:09:58 PM 42.4933 -101.3964 250° West 367 422 36,000  Level Denver Center
Wed 08:11:00 PM 42.4522 -101.5431 249° West 373 429 36,000  Level Denver Center
Wed 08:12:01 PM 42.4175 -101.6681 249° West 373 429 36,000  Level Denver Center
Wed 08:13:02 PM 42.3781 -101.8153 250° West 374 430 36,000  Level Denver Center
Wed 08:14:04 PM 42.3389 -101.9511 249° West 374 430 36,000  Level Denver Center
Wed 08:15:05 PM 42.3025 -102.0772 249° West 377 434 36,000  Level Denver Center
Wed 08:16:07 PM 42.2675 -102.2042 250° West 378 435 36,000  Level Denver Center
Wed 08:17:08 PM 42.2239 -102.3547 249° West 384 442 36,000  Level Denver Center
Wed 08:18:10 PM 42.1861 -102.4844 249° West 388 447 36,000  Level Denver Center
Wed 08:19:11 PM 42.1422 -102.6369 249° West 389 448 36,000  Level Denver Center
Wed 08:20:12 PM 42.1044 -102.7672 249° West 390 449 36,000  Level Denver Center
Wed 08:21:14 PM 42.0661 -102.8989 249° West 392 451 36,000  Level Denver Center
Wed 08:22:15 PM 42.0211 -103.0506 248° West 390 449 36,000  Level Denver Center
Wed 08:23:17 PM 41.9836 -103.1806 249° West 389 448 36,000  Level Denver Center
Wed 08:24:18 PM 41.9378 -103.3336 248° West 394 453 36,000  Level Denver Center
Wed 08:25:20 PM 41.8989 -103.4658 248° West 397 457 36,000  Level Denver Center
Wed 08:26:21 PM 41.8508 -103.5947 243° Southwest 401 461 36,000  Level Denver Center
Wed 08:27:22 PM 41.7939 -103.7431 243° Southwest 400 460 36,000  Level Denver Center
Wed 08:28:24 PM 41.7444 -103.8703 243° Southwest 399 459 36,000  Level Denver Center
Wed 08:29:25 PM 41.6953 -103.9972 243° Southwest 400 460 36,000  Level Denver Center
Wed 08:30:27 PM 41.6378 -104.1447 242° Southwest 398 458 36,000  Level Denver Center
Wed 08:31:28 PM 41.5886 -104.2708 243° Southwest 400 460 36,000  Level Denver Center
Wed 08:32:29 PM 41.5314 -104.4186 243° Southwest 400 460 36,000  Level Denver Center
Wed 08:33:31 PM 41.4814 -104.5444 242° Southwest 403 464 36,000  Level Denver Center
Wed 08:34:32 PM 41.4306 -104.6711 242° Southwest 405 466 36,000  Level Denver Center
Wed 08:35:33 PM 41.3708 -104.8222 242° Southwest 411 473 36,000  Level Denver Center
Wed 08:36:35 PM 41.3200 -104.9522 243° Southwest 412 474 36,000  Level Denver Center
Wed 08:37:36 PM 41.2594 -105.1000 241° Southwest 409 471 36,000  Level Denver Center
Wed 08:38:38 PM 41.2072 -105.2300 242° Southwest 414 476 36,000  Level Denver Center
Wed 08:39:39 PM 41.1553 -105.3603 242° Southwest 415 478 36,000  Level Denver Center
Wed 08:40:40 PM 41.0922 -105.5125 241° Southwest 420 483 36,000  Level Denver Center
Wed 08:41:42 PM 41.0386 -105.6447 242° Southwest 424 488 36,000  Level Denver Center
Wed 08:42:43 PM 40.9828 -105.7797 241° Southwest 423 487 36,000  Level Denver Center
Wed 08:43:45 PM 40.9258 -105.9172 241° Southwest 423 487 36,000  Level Denver Center
Wed 08:44:46 PM 40.8694 -106.0533 241° Southwest 420 483 36,000  Level Denver Center
Wed 08:45:48 PM 40.8053 -106.2067 241° Southwest 416 479 36,000  Level Denver Center
Wed 08:46:49 PM 40.7456 -106.3492 241° Southwest 419 482 36,000  Level Denver Center
Wed 08:47:50 PM 40.6922 -106.4764 241° Southwest 416 479 36,000  Level Denver Center
Wed 08:48:52 PM 40.6367 -106.6089 241° Southwest 421 484 36,000  Level Denver Center
Wed 08:49:53 PM 40.5792 -106.7436 241° Southwest 422 486 36,000  Level Denver Center
Wed 08:50:55 PM 40.5219 -106.8783 241° Southwest 423 487 36,000  Level Denver Center
Wed 08:51:56 PM 40.4561 -107.0333 241° Southwest 417 480 36,000  Level Denver Center
Wed 08:52:57 PM 40.4103 -107.1406 241° Southwest 419 482 36,000  Level Denver Center
Wed 08:53:59 PM 40.3456 -107.2881 240° Southwest 419 482 36,000  Level Denver Center
Wed 08:55:00 PM 40.2817 -107.4372 241° Southwest 419 482 36,000  Level Denver Center
Wed 08:56:02 PM 40.2267 -107.5628 240° Southwest 417 480 36,000  Level Denver Center
Wed 08:57:03 PM 40.1608 -107.7111 240° Southwest 421 484 36,000  Level Denver Center
Wed 08:58:05 PM 40.1039 -107.8419 240° Southwest 431 496 36,000  Level Denver Center
Wed 08:59:06 PM 40.0506 -107.9722 242° Southwest 427 491 36,000  Level Denver Center
Wed 09:00:08 PM 39.9986 -108.1344 247° West 433 498 36,000  Level Denver Center
Wed 09:01:09 PM 39.9536 -108.2719 247° West 431 496 36,000  Level Denver Center
Wed 09:02:10 PM 39.8992 -108.4322 246° West 434 499 36,000  Level Denver Center
Wed 09:03:12 PM 39.8547 -108.5681 247° West 428 493 36,000  Level Denver Center
Wed 09:04:13 PM 39.8028 -108.7247 247° West 426 490 36,000  Level Denver Center
Wed 09:05:15 PM 39.7578 -108.8561 246° West 424 488 36,000  Level Denver Center
Wed 09:06:16 PM 39.7058 -109.0128 247° West 431 496 36,000  Level Denver Center
Wed 09:07:32 PM 39.6511 -109.1706 246° West 432 497 36,000  Level Salt Lake Center
Wed 09:08:33 PM 39.5978 -109.3289 246° West 429 494 36,000  Level Salt Lake Center
Wed 09:09:35 PM 39.5519 -109.4639 246° West 429 494 36,000  Level Salt Lake Center
Wed 09:10:36 PM 39.4972 -109.6219 246° West 431 496 36,000  Level Salt Lake Center
Wed 09:11:23 PM 39.4581 -109.7342 246° West 432 497 36,000  Level Denver Center
Wed 09:12:39 PM 39.3639 -109.8917 232° Southwest 437 503 36,000  Level Salt Lake Center
Wed 09:13:40 PM 39.2869 -110.0053 229° Southwest 440 506 36,000  Level Salt Lake Center
Wed 09:14:42 PM 39.2119 -110.1194 230° Southwest 437 503 36,000  Level Salt Lake Center
Wed 09:15:43 PM 39.1225 -110.2528 229° Southwest 439 505 36,000  Level Salt Lake Center
Wed 09:16:44 PM 39.0453 -110.3667 229° Southwest 441 507 36,000  Level Salt Lake Center
Wed 09:17:46 PM 38.9550 -110.5000 229° Southwest 442 509 36,000  Level Salt Lake Center
Wed 09:18:47 PM 38.8769 -110.6133 229° Southwest 442 509 36,000  Level Salt Lake Center
Wed 09:19:49 PM 38.7997 -110.7264 229° Southwest 441 507 36,000 -488 Level Salt Lake Center
Wed 09:20:50 PM 38.7092 -110.8589 229° Southwest 441 507 35,000 -984 Descending Salt Lake Center
Wed 09:21:51 PM 38.6239 -110.9853 229° Southwest 448 516 34,000 -976 Descending Salt Lake Center
Wed 09:22:53 PM 38.5411 -111.1058 229° Southwest 451 519 33,000 -927 Descending Salt Lake Center
Wed 09:23:54 PM 38.4578 -111.2258 228° Southwest 452 520 32,100 -492 Descending Salt Lake Center
Wed 09:24:55 PM 38.3739 -111.3447 228° Southwest 452 520 32,000 -49 Descending Salt Lake Center
Wed 09:25:56 PM 38.2906 -111.4650 229° Southwest 453 521 32,000  Level Salt Lake Center
Wed 09:26:58 PM 38.2064 -111.5833 228° Southwest 452 520 32,000  Level Salt Lake Center
Wed 09:27:59 PM 38.1208 -111.7036 228° Southwest 456 525 32,000  Level Salt Lake Center
Wed 09:29:00 PM 38.0358 -111.8236 228° Southwest 458 527 32,000  Level Salt Lake Center
Wed 09:30:02 PM 37.9486 -111.9439 227° Southwest 461 531 32,000  Level Salt Lake Center
Wed 09:31:03 PM 37.8464 -112.0869 228° Southwest 459 528 32,000  Level Salt Lake Center
Wed 09:32:04 PM 37.7617 -112.2047 228° Southwest 452 520 32,000  Level Salt Lake Center
Wed 09:33:05 PM 37.6781 -112.3233 228° Southwest 452 520 32,000  Level Salt Lake Center
Wed 09:34:07 PM 37.6014 -112.4486 232° Southwest 449 517 32,000  Level Salt Lake Center
Wed 09:35:08 PM 37.5228 -112.5772 232° Southwest 455 524 32,000  Level Salt Lake Center
Wed 09:36:09 PM 37.4439 -112.7050 232° Southwest 456 525 32,000  Level Salt Lake Center
Wed 09:37:11 PM 37.3642 -112.8333 232° Southwest 457 526 32,000  Level Salt Lake Center
Wed 09:38:12 PM 37.2839 -112.9592 231° Southwest 458 527 32,000 -197 Level Salt Lake Center
Wed 09:39:13 PM 37.2067 -113.0842 232° Southwest 453 521 31,600 -650 Descending Salt Lake Center
Wed 09:40:12 PM 37.1272 -113.2100 232° Southwest 458 527 30,700 -893 Descending Los Angeles Center
Wed 09:41:14 PM 37.0467 -113.3369 232° Southwest 464 534 29,800 -919 Descending Los Angeles Center
Wed 09:42:16 PM 36.9683 -113.4636 232° Southwest 462 532 28,800 -1,073 Descending Los Angeles Center
Wed 09:43:17 PM 36.8881 -113.5906 232° Southwest 465 535 27,600 -1,854 Descending Los Angeles Center
Wed 09:44:19 PM 36.8103 -113.7153 232° Southwest 458 527 25,000 -2,613 Descending Los Angeles Center
Wed 09:45:21 PM 36.7250 -113.8494 232° Southwest 415 478 22,200 -2,439 Descending Los Angeles Center
Wed 09:46:22 PM 36.6572 -113.9544 231° Southwest 394 453 20,000 -2,000 Descending Los Angeles Center
Wed 09:47:24 PM 36.5925 -114.0547 231° Southwest 377 434 18,100 -1,805 Descending Los Angeles Center
Wed 09:48:25 PM 36.5403 -114.1589 238° Southwest 359 413 16,300 -1,882 Descending Los Angeles Center
Wed 09:49:06 PM 36.5075 -114.2428 244° Southwest 354 407 14,900 -1,839 Descending Los Angeles Center
Wed 09:49:27 PM 36.4903 -114.2681 230° Southwest 342 394 14,400 -1,701 Descending Los Angeles Center
Wed 09:50:13 PM 36.4597 -114.3478 245° Southwest 326 375 13,000 -1,645 Descending Los Angeles Center
Wed 09:50:29 PM 36.4453 -114.3661 226° Southwest 329 379 12,700 -900 Descending Los Angeles Center
Wed 09:51:13 PM 36.4111 -114.4500 243° Southwest 325 374 12,100 -590 Descending Los Angeles Center
Wed 09:51:30 PM 36.3997 -114.4622 221° Southwest 324 373 12,100 -689 Level Los Angeles Center
Wed 09:52:14 PM 36.3381 -114.4911 201° Southwest 308 354 11,400 -871 Descending Los Angeles Center
Wed 09:52:32 PM 36.3200 -114.4875 171° South 309 356 11,200 -984 Descending Los Angeles Center
Wed 09:53:15 PM 36.2514 -114.4911 182° South 306 352 10,400 -885 Descending Los Angeles Center
Wed 09:53:33 PM 36.2339 -114.4886 173° South 307 353 10,300 -885 Descending Los Angeles Center
Wed 09:54:16 PM 36.1761 -114.4925 183° South 265 305 9,500 -892 Descending Los Angeles Center
Wed 09:54:47 PM 36.1583 -114.4908 176° South 286 329 9,200 -1,343 Descending Los Angeles Center
Wed 09:55:23 PM 36.0997 -114.4997 187° South 254 292 8,000 -1,161 Descending Los Angeles Center
Wed 09:55:49 PM 36.0864 -114.5158 224° Southwest 261 300 8,000  Level Los Angeles Center
Wed 09:56:23 PM 36.0825 -114.5775 266° West 230 265 8,000  Level Los Angeles Center
Wed 09:56:51 PM 36.0797 -114.6097 264° West 233 268 8,000  Level Los Angeles Center
Wed 09:57:24 PM 36.0783 -114.6564 268° West 228 262 8,000  Level Los Angeles Center
Wed 09:57:52 PM 36.0756 -114.6889 264° West 231 266 8,000 -98 Level Los Angeles Center
Wed 09:58:25 PM 36.0742 -114.7350 268° West 229 264 7,900 -387 Descending Los Angeles Center
Wed 09:58:54 PM 36.0719 -114.7667 265° West 229 264 7,600 -787 Descending Los Angeles Center
Wed 09:59:26 PM 36.0744 -114.8147 274° West 229 264 7,100 -885 Descending Los Angeles Center
Wed 09:59:55 PM 36.0731 -114.8436 267° West 227 261 6,700 -982 Descending Los Angeles Center
Wed 10:00:21 PM 36.0744 -114.8839 272° West 218 251 6,200 -1,161 Descending Los Angeles Center
Wed 10:00:57 PM 36.0733 -114.9172 268° West 222 255 5,500 -1,377 Descending Los Angeles Center
Wed 10:01:22 PM 36.0725 -114.9539 268° West 209 241 4,800 -1,680 Descending Los Angeles Center

Login

Don't have an account? Register now (free) for customized features, flight alerts, and more!